Hovedside
METAR-TAF:

METAR-TAF

Lufthavner :

Khon Kaen, Thailand

breddegrad: 16-26N, lengdegrad: 102-50E, høyde over havet: 165 m

Gjeldene værobservasjon

Denne rapporten ble laget for 15 minutter siden, klokken 00:00 UTC
Vind 3 kt fra Sør, skiftende mellom Sør-sørøst og Sørvest
Temperatur 29°C
Luftfuktighet 79%
Trykk 1005 hPa
Sikt: 9000 m
Få skyer i en høyde av 3000 ft

METAR: VTUK 210000Z 19003KT 160V220 9000 FEW030 29/25 Q1005 NOSIG

Tid: 07:15 (00:15 UTC)

Varsel

Denne rapporten ble laget for 1 time og 15 minutter siden, klokken 23:00 UTC
Varsel gyldig fra 21. klokken 00 UTC til 21. klokken 24 UTC
Vind 5 kt fra Sør-sørvest
Sikt: 9000 m
Få skyer i en høyde av 3000 ft
Midlertidig
fra 21. klokken 09 UTC til 21. klokken 13 UTC
Vind 15 kt fra skiftende retning
Få skyer i en høyde av 1800 ft, Bygeskyer.
Brutte skyer i en høyde av 2500 ft
torden, lett regn,

TAF: VTUK 202300Z 2100/2124 20005KT 9000 FEW030 TEMPO 2109/2113 VRB15KT -TSRA FEW018CB BKN025

Værobservasjoner og værvarsel for over 4000 flyplasser (METAR- og TAF-rapporter).

Tilgjengelige stasjoner er representert av de røde og gule prikkene på kartet.

Hold musepekeren over prikken for å se navnet på stasjonen.

Klikk så for å se værobservasjoner og -varsler.

For å forandre kartet kan du klikke på den grønne knappen med svart kryss for å zoome inn, på den grønne knappen med strek for å zoome ut, eller på de grønne pilene for å se tilstøtende kart.


METAR-TAF: